createdAt,value
2022-09-12T00:00:31.790Z,22.27
2022-09-12T00:02:55.167Z,22.35
2022-09-12T00:05:18.403Z,22.39
2022-09-12T00:07:41.673Z,22.43
2022-09-12T00:10:07.646Z,22.35
2022-09-12T00:12:30.806Z,22.31
2022-09-12T00:14:53.961Z,22.24
2022-09-12T00:17:17.155Z,22.25
2022-09-12T00:19:40.297Z,22.22
2022-09-12T00:22:03.528Z,22.53
2022-09-12T00:24:26.717Z,22.68
2022-09-12T00:26:51.310Z,22.59
2022-09-12T00:29:15.988Z,22.39
2022-09-12T00:31:39.575Z,22.34
2022-09-12T00:34:03.121Z,22.26
2022-09-12T00:36:26.505Z,22.14
2022-09-12T00:38:49.752Z,21.99
2022-09-12T00:41:15.194Z,22.05
2022-09-12T00:43:40.668Z,22.00
2022-09-12T00:46:05.006Z,21.81
2022-09-12T00:48:29.705Z,21.92
2022-09-12T00:50:52.867Z,22.05
2022-09-12T00:53:16.021Z,21.74
2022-09-12T00:55:40.235Z,21.57
2022-09-12T00:58:04.961Z,21.84
2022-09-12T01:00:29.968Z,21.69
2022-09-12T01:02:54.743Z,21.58
2022-09-12T01:05:18.061Z,21.58
2022-09-12T01:07:41.278Z,21.58
2022-09-12T01:10:05.518Z,21.40
2022-09-12T01:12:28.699Z,21.28
2022-09-12T01:14:51.925Z,21.09
2022-09-12T01:17:16.890Z,21.16
2022-09-12T01:20:16.481Z,21.04
2022-09-12T01:22:55.180Z,21.14
2022-09-12T01:25:21.454Z,21.18
2022-09-12T01:27:52.079Z,21.05
2022-09-12T01:30:27.809Z,20.95
2022-09-12T01:33:09.709Z,20.81
2022-09-12T01:35:34.150Z,20.94
2022-09-12T01:38:00.810Z,20.92
2022-09-12T01:40:25.361Z,21.24
2022-09-12T01:42:52.187Z,21.11
2022-09-12T01:45:17.986Z,21.10
2022-09-12T01:47:43.051Z,21.11
2022-09-12T01:50:08.074Z,21.09
2022-09-12T01:52:33.465Z,20.91
2022-09-12T01:54:58.727Z,20.82
2022-09-12T01:57:25.070Z,20.84
2022-09-12T01:59:49.472Z,20.91
2022-09-12T02:02:13.687Z,21.01
2022-09-12T02:04:40.109Z,20.95
2022-09-12T02:07:05.059Z,21.00
2022-09-12T02:09:30.518Z,20.92
2022-09-12T02:11:55.611Z,20.86
2022-09-12T02:14:20.402Z,20.80
2022-09-12T02:16:44.364Z,20.81
2022-09-12T02:19:09.990Z,20.70
2022-09-12T02:21:34.513Z,20.69
2022-09-12T02:23:58.449Z,20.75
2022-09-12T02:26:22.677Z,20.69
2022-09-12T02:28:48.905Z,20.67
2022-09-12T02:31:15.427Z,20.80
2022-09-12T02:33:40.372Z,20.75
2022-09-12T02:36:07.127Z,20.59
2022-09-12T02:38:34.374Z,20.66
2022-09-12T02:40:57.551Z,20.58
2022-09-12T02:43:20.794Z,20.59
2022-09-12T02:45:43.965Z,20.45
2022-09-12T02:48:08.794Z,20.40
2022-09-12T02:50:31.933Z,20.46
2022-09-12T02:52:59.732Z,20.44
2022-09-12T02:55:24.790Z,20.27
2022-09-12T02:57:48.024Z,20.30
2022-09-12T03:00:12.176Z,20.26
2022-09-12T03:02:43.633Z,20.20
2022-09-12T03:05:15.127Z,20.31
2022-09-12T03:07:47.554Z,20.34
2022-09-12T03:10:13.561Z,20.36
2022-09-12T03:12:44.197Z,20.41
2022-09-12T03:15:19.950Z,20.35
2022-09-12T03:17:53.352Z,20.43
2022-09-12T03:20:18.021Z,20.27
2022-09-12T03:22:47.084Z,20.26
2022-09-12T03:25:14.775Z,20.12
2022-09-12T03:27:38.593Z,20.27
2022-09-12T03:30:03.222Z,20.25
2022-09-12T03:32:40.773Z,20.38
2022-09-12T03:35:04.187Z,20.27
2022-09-12T03:37:27.343Z,20.35
2022-09-12T03:39:50.533Z,20.39
2022-09-12T03:42:13.722Z,20.43
2022-09-12T03:44:36.985Z,20.32
2022-09-12T03:47:01.564Z,20.32
2022-09-12T03:49:25.030Z,20.32
2022-09-12T03:51:48.199Z,20.37
2022-09-12T03:54:11.489Z,20.29
2022-09-12T03:56:34.650Z,20.24
2022-09-12T03:58:57.953Z,20.27
2022-09-12T04:01:21.209Z,20.20
2022-09-12T04:03:46.624Z,20.29
2022-09-12T04:06:10.198Z,20.27
2022-09-12T04:08:33.415Z,20.32
2022-09-12T04:10:56.797Z,20.59
2022-09-12T04:13:20.053Z,20.43
2022-09-12T04:15:43.194Z,20.53
2022-09-12T04:18:06.671Z,20.53
2022-09-12T04:20:31.176Z,20.33
2022-09-12T04:22:54.202Z,20.27
2022-09-12T04:25:17.530Z,20.38
2022-09-12T04:27:40.818Z,20.34
2022-09-12T04:30:04.209Z,20.41
2022-09-12T04:32:27.441Z,20.46
2022-09-12T04:34:52.392Z,20.70
2022-09-12T04:37:17.011Z,20.59
2022-09-12T04:39:41.312Z,20.53
2022-09-12T04:42:04.898Z,20.63
2022-09-12T04:44:28.098Z,20.45
2022-09-12T04:46:51.242Z,20.43
2022-09-12T04:49:14.516Z,20.65
2022-09-12T04:51:38.607Z,20.86
2022-09-12T04:54:04.277Z,20.76
2022-09-12T04:56:27.565Z,20.48
2022-09-12T04:58:50.811Z,20.67
2022-09-12T05:01:15.328Z,20.58
2022-09-12T05:03:39.105Z,20.45
2022-09-12T05:06:03.618Z,20.54
2022-09-12T05:08:26.951Z,20.62
2022-09-12T05:10:51.489Z,20.54
2022-09-12T05:13:14.710Z,20.54
2022-09-12T05:15:37.858Z,20.39
2022-09-12T05:18:01.139Z,20.36
2022-09-12T05:20:24.263Z,20.45
2022-09-12T05:22:47.519Z,20.43
2022-09-12T05:25:11.149Z,20.59
2022-09-12T05:27:35.718Z,20.69
2022-09-12T05:29:59.149Z,20.65
2022-09-12T05:32:22.374Z,20.81
2022-09-12T05:34:45.526Z,20.86
2022-09-12T05:37:08.978Z,20.99
2022-09-12T05:39:32.155Z,21.19
2022-09-12T05:41:56.488Z,21.33
2022-09-12T05:44:21.106Z,21.25
2022-09-12T05:46:46.682Z,21.32
2022-09-12T05:49:11.559Z,21.28
2022-09-12T05:51:35.590Z,21.40
2022-09-12T05:54:00.532Z,21.65
2022-09-12T05:56:25.302Z,21.70
2022-09-12T05:58:49.493Z,21.81
2022-09-12T06:01:14.952Z,21.75
2022-09-12T06:03:40.832Z,21.75
2022-09-12T06:06:05.169Z,21.69
2022-09-12T06:08:28.162Z,21.29
2022-09-12T06:10:51.298Z,21.25
2022-09-12T06:13:14.448Z,21.24
2022-09-12T06:15:37.699Z,21.24
2022-09-12T06:18:02.282Z,21.18
2022-09-12T06:20:25.197Z,21.31
2022-09-12T06:22:48.451Z,21.22
2022-09-12T06:25:11.614Z,21.14
2022-09-12T06:27:34.754Z,21.28
2022-09-12T06:29:57.945Z,21.28
2022-09-12T06:32:21.262Z,21.31
2022-09-12T06:34:47.735Z,21.40
2022-09-12T06:37:11.317Z,21.32
2022-09-12T06:39:36.626Z,21.34
2022-09-12T06:41:59.778Z,21.33
2022-09-12T06:44:32.440Z,21.42
2022-09-12T06:46:55.610Z,21.45
2022-09-12T06:49:18.858Z,21.44
2022-09-12T06:51:43.413Z,21.49
2022-09-12T06:54:06.732Z,21.58
2022-09-12T06:56:29.882Z,21.65
2022-09-12T06:58:53.642Z,21.65
2022-09-12T07:01:17.808Z,21.65
2022-09-12T07:03:41.458Z,21.68
2022-09-12T07:06:05.788Z,21.73
2022-09-12T07:08:31.873Z,21.77
2022-09-12T07:10:55.061Z,21.72
2022-09-12T07:13:18.242Z,21.81
2022-09-12T07:15:41.438Z,21.79
2022-09-12T07:18:04.765Z,21.78
2022-09-12T07:20:27.903Z,21.74
2022-09-12T07:22:52.186Z,21.84
2022-09-12T07:25:16.883Z,21.96
2022-09-12T07:27:40.085Z,22.01
2022-09-12T07:30:03.285Z,22.01
2022-09-12T07:32:26.550Z,21.92
2022-09-12T07:34:50.020Z,21.98
2022-09-12T07:37:13.241Z,22.10
2022-09-12T07:39:36.406Z,22.12
2022-09-12T07:42:01.562Z,22.18
2022-09-12T07:44:27.033Z,22.23
2022-09-12T07:46:50.777Z,22.25
2022-09-12T07:49:14.282Z,22.32
2022-09-12T07:51:37.435Z,22.31
2022-09-12T07:54:00.631Z,22.40
2022-09-12T07:56:29.455Z,22.47
2022-09-12T07:58:56.032Z,22.51
2022-09-12T08:01:19.976Z,22.54
2022-09-12T08:03:43.533Z,22.51
2022-09-12T08:06:07.340Z,22.45
2022-09-12T08:08:30.582Z,22.47
2022-09-12T08:10:58.434Z,22.51
2022-09-12T08:13:21.688Z,22.62
2022-09-12T08:15:46.295Z,22.71
2022-09-12T08:18:09.568Z,22.79
2022-09-12T08:20:33.006Z,22.77
2022-09-12T08:22:56.538Z,22.75
2022-09-12T08:25:19.692Z,22.70
2022-09-12T08:27:43.585Z,22.68
2022-09-12T08:30:07.690Z,22.65
2022-09-12T08:32:32.171Z,22.66
2022-09-12T08:34:55.120Z,22.67
2022-09-12T08:37:18.353Z,22.62
2022-09-12T08:39:42.033Z,22.56
2022-09-12T08:42:06.246Z,22.62
2022-09-12T08:44:56.581Z,22.73
2022-09-12T08:47:23.138Z,22.79
2022-09-12T08:49:51.609Z,22.85
2022-09-12T08:52:18.084Z,22.87
2022-09-12T08:54:41.247Z,22.88
2022-09-12T08:57:05.016Z,22.85
2022-09-12T08:59:28.289Z,22.90
2022-09-12T09:01:53.886Z,22.94
2022-09-12T09:04:29.489Z,22.89
2022-09-12T09:07:20.591Z,22.96
2022-09-12T09:09:54.825Z,23.02
2022-09-12T09:12:20.882Z,23.05
2022-09-12T09:14:55.437Z,23.09
2022-09-12T09:17:25.262Z,23.13
2022-09-12T09:19:51.149Z,23.11
2022-09-12T09:22:15.504Z,23.08
2022-09-12T09:24:41.322Z,23.09
2022-09-12T09:27:23.570Z,23.10
2022-09-12T09:29:52.313Z,23.17
2022-09-12T09:32:18.370Z,23.22
2022-09-12T09:34:41.803Z,23.22
2022-09-12T09:37:09.624Z,23.24
2022-09-12T09:39:42.503Z,23.29
2022-09-12T09:42:18.074Z,23.34
2022-09-12T09:44:41.314Z,23.34
2022-09-12T09:47:05.346Z,23.34
2022-09-12T09:49:29.325Z,23.35
2022-09-12T09:51:52.488Z,23.36
2022-09-12T09:54:19.970Z,23.36
2022-09-12T09:56:44.503Z,23.41
2022-09-12T09:59:12.874Z,23.47
2022-09-12T10:01:36.114Z,23.52
2022-09-12T10:03:59.922Z,23.47
2022-09-12T10:06:28.065Z,23.43
2022-09-12T10:08:51.580Z,23.41
2022-09-12T10:11:19.750Z,23.45
2022-09-12T10:13:53.259Z,23.47
2022-09-12T10:16:20.566Z,23.47
2022-09-12T10:18:43.984Z,23.47
2022-09-12T10:21:18.943Z,23.48
2022-09-12T10:23:42.224Z,23.51
2022-09-12T10:26:06.593Z,23.51
2022-09-12T10:28:32.126Z,23.51
2022-09-12T10:30:56.842Z,23.48
2022-09-12T10:33:20.435Z,23.49
2022-09-12T10:35:44.976Z,23.51
2022-09-12T10:38:08.461Z,23.51
2022-09-12T10:40:32.813Z,23.50
2022-09-12T10:42:56.532Z,23.51
2022-09-12T10:45:24.783Z,23.55
2022-09-12T10:47:49.419Z,23.60
2022-09-12T10:50:22.812Z,23.58
2022-09-12T10:52:46.329Z,23.61
2022-09-12T10:55:14.708Z,23.57
2022-09-12T10:57:52.368Z,23.63
2022-09-12T11:00:17.553Z,23.60
2022-09-12T11:02:51.895Z,23.71
2022-09-12T11:05:20.652Z,23.72
2022-09-12T11:07:47.309Z,23.73
2022-09-12T11:10:35.630Z,23.73
2022-09-12T11:13:07.025Z,23.72
2022-09-12T11:15:42.712Z,23.74
2022-09-12T11:18:12.203Z,23.75
2022-09-12T11:20:41.800Z,23.78
2022-09-12T11:23:41.973Z,23.81
2022-09-12T11:26:08.532Z,23.84
2022-09-12T11:28:35.831Z,23.84
2022-09-12T11:31:08.150Z,23.86
2022-09-12T11:33:42.713Z,23.88
2022-09-12T11:36:06.427Z,23.89
2022-09-12T11:38:53.500Z,23.89
2022-09-12T11:41:18.391Z,23.84
2022-09-12T11:43:43.044Z,23.87
2022-09-12T11:46:10.761Z,23.89
2022-09-12T11:48:39.930Z,23.89
2022-09-12T11:51:04.653Z,23.90
2022-09-12T11:53:29.654Z,23.91
2022-09-12T11:55:56.099Z,23.85
2022-09-12T11:58:19.555Z,23.92
2022-09-12T12:00:44.198Z,23.92
2022-09-12T12:03:09.991Z,23.91
2022-09-12T12:05:37.247Z,23.92
2022-09-12T12:08:01.119Z,23.92
2022-09-12T12:10:31.067Z,23.91
2022-09-12T12:12:54.914Z,23.92
2022-09-12T12:15:18.256Z,23.92
2022-09-12T12:17:41.437Z,23.94
2022-09-12T12:20:08.586Z,23.93
2022-09-12T12:22:33.722Z,23.94
2022-09-12T12:25:02.777Z,23.92
2022-09-12T12:27:45.727Z,23.93
2022-09-12T12:30:34.173Z,23.95
2022-09-12T12:33:00.705Z,23.95
2022-09-12T12:35:39.669Z,23.95
2022-09-12T12:38:04.339Z,23.94
2022-09-12T12:40:29.022Z,23.93
2022-09-12T12:43:06.123Z,23.92
2022-09-12T12:45:48.795Z,23.91
2022-09-12T12:48:12.782Z,23.90
2022-09-12T12:50:36.251Z,23.90
2022-09-12T12:53:00.157Z,23.91
2022-09-12T12:55:26.383Z,23.92
2022-09-12T12:57:50.162Z,23.94
2022-09-12T13:00:29.929Z,23.93
2022-09-12T13:02:56.121Z,23.93
2022-09-12T13:05:21.343Z,23.93
2022-09-12T13:07:44.765Z,23.92
2022-09-12T13:10:08.666Z,23.86
2022-09-12T13:12:34.831Z,23.92
2022-09-12T13:14:58.500Z,23.93
2022-09-12T13:17:26.106Z,23.94
2022-09-12T13:19:49.787Z,23.94
2022-09-12T13:22:13.034Z,23.94
2022-09-12T13:24:36.745Z,23.94
2022-09-12T13:26:59.998Z,23.94
2022-09-12T13:29:25.420Z,23.95
2022-09-12T13:31:49.980Z,23.95
2022-09-12T13:34:12.962Z,23.96
2022-09-12T13:36:51.545Z,23.96
2022-09-12T13:39:16.922Z,23.95
2022-09-12T13:42:19.881Z,23.96
2022-09-12T13:44:45.607Z,23.96
2022-09-12T13:47:09.350Z,23.96
2022-09-12T13:49:34.324Z,23.96
2022-09-12T13:52:00.131Z,23.96
2022-09-12T13:54:24.646Z,23.96
2022-09-12T13:56:48.643Z,23.96
2022-09-12T13:59:12.452Z,23.95
2022-09-12T14:01:40.959Z,23.97
2022-09-12T14:04:26.856Z,23.98
2022-09-12T14:06:51.474Z,23.99
2022-09-12T14:09:15.000Z,23.99
2022-09-12T14:11:40.106Z,24.00
2022-09-12T14:14:03.635Z,24.00
2022-09-12T14:16:29.038Z,24.00
2022-09-12T14:18:54.365Z,24.01
2022-09-12T14:21:28.634Z,24.02
2022-09-12T14:23:51.844Z,24.03
2022-09-12T14:26:15.437Z,24.02
2022-09-12T14:28:40.907Z,24.02
2022-09-12T14:31:06.577Z,24.02
2022-09-12T14:33:30.093Z,24.03
2022-09-12T14:36:08.890Z,24.02
2022-09-12T14:38:35.312Z,23.99
2022-09-12T14:41:01.141Z,24.02
2022-09-12T14:43:26.401Z,24.03
2022-09-12T14:45:55.968Z,23.97
2022-09-12T14:48:19.470Z,24.01
2022-09-12T14:50:42.721Z,24.01
2022-09-12T14:53:08.159Z,24.01
2022-09-12T14:55:32.141Z,24.00
2022-09-12T14:58:08.404Z,23.99
2022-09-12T15:00:31.666Z,24.00
2022-09-12T15:02:54.854Z,24.02
2022-09-12T15:05:26.580Z,24.03
2022-09-12T15:07:54.809Z,24.04
2022-09-12T15:10:22.150Z,24.04
2022-09-12T15:12:45.440Z,24.04
2022-09-12T15:15:14.778Z,23.98
2022-09-12T15:17:38.041Z,24.05
2022-09-12T15:20:01.331Z,24.06
2022-09-12T15:22:25.366Z,24.06
2022-09-12T15:24:49.466Z,24.05
2022-09-12T15:27:14.153Z,24.05
2022-09-12T15:29:37.338Z,24.06
2022-09-12T15:32:00.595Z,24.06
2022-09-12T15:34:23.841Z,24.05
2022-09-12T15:36:47.062Z,24.04
2022-09-12T15:39:10.430Z,24.05
2022-09-12T15:41:35.622Z,24.04
2022-09-12T15:44:01.198Z,24.06
2022-09-12T15:46:24.400Z,24.06
2022-09-12T15:48:47.705Z,24.05
2022-09-12T15:51:15.449Z,24.04
2022-09-12T15:53:39.291Z,24.03
2022-09-12T15:56:02.737Z,24.03
2022-09-12T15:58:26.016Z,24.00
2022-09-12T16:00:50.629Z,24.00
2022-09-12T16:03:19.275Z,24.02
2022-09-12T16:05:42.718Z,24.00
2022-09-12T16:08:06.027Z,24.00
2022-09-12T16:10:31.190Z,24.00
2022-09-12T16:12:54.400Z,23.99
2022-09-12T16:15:19.763Z,24.00
2022-09-12T16:17:44.326Z,24.02
2022-09-12T16:20:08.863Z,24.00
2022-09-12T16:22:32.213Z,23.98
2022-09-12T16:24:55.444Z,23.97
2022-09-12T16:27:19.679Z,23.99
2022-09-12T16:29:42.994Z,24.00
2022-09-12T16:32:06.575Z,24.01
2022-09-12T16:34:31.169Z,24.03
2022-09-12T16:36:54.461Z,24.03
2022-09-12T16:39:17.775Z,24.02
2022-09-12T16:41:42.716Z,24.02
2022-09-12T16:44:05.935Z,24.03
2022-09-12T16:46:29.678Z,24.02
2022-09-12T16:48:53.993Z,24.03
2022-09-12T16:51:20.233Z,24.03
2022-09-12T16:53:43.511Z,24.02
2022-09-12T16:56:07.123Z,23.98
2022-09-12T16:58:33.223Z,24.00
2022-09-12T17:01:01.499Z,24.02
2022-09-12T17:03:24.867Z,23.87
2022-09-12T17:05:48.071Z,23.84
2022-09-12T17:08:12.712Z,23.74
2022-09-12T17:10:35.898Z,23.62
2022-09-12T17:12:59.309Z,23.58
2022-09-12T17:15:22.523Z,23.34
2022-09-12T17:17:47.133Z,23.21
2022-09-12T17:20:10.262Z,23.42
2022-09-12T17:22:34.871Z,23.48
2022-09-12T17:24:59.451Z,23.45
2022-09-12T17:27:22.678Z,23.33
2022-09-12T17:29:45.982Z,23.37
2022-09-12T17:32:09.289Z,23.28
2022-09-12T17:34:32.718Z,23.21
2022-09-12T17:36:55.994Z,23.21
2022-09-12T17:39:19.198Z,23.17
2022-09-12T17:41:44.020Z,23.20
2022-09-12T17:44:07.684Z,23.21
2022-09-12T17:46:33.041Z,23.29
2022-09-12T17:48:57.101Z,23.27
2022-09-12T17:51:20.331Z,23.23
2022-09-12T17:53:43.624Z,23.14
2022-09-12T17:56:07.245Z,22.98
2022-09-12T17:58:31.842Z,22.87
2022-09-12T18:01:24.386Z,22.82
2022-09-12T18:03:48.102Z,22.91
2022-09-12T18:06:11.469Z,22.90
2022-09-12T18:08:34.681Z,22.77
2022-09-12T18:11:04.849Z,22.65
2022-09-12T18:13:28.092Z,22.70
2022-09-12T18:15:52.699Z,22.65
2022-09-12T18:18:15.993Z,22.66
2022-09-12T18:20:39.351Z,22.68
2022-09-12T18:23:02.590Z,22.75
2022-09-12T18:25:26.038Z,22.67
2022-09-12T18:27:49.251Z,22.68
2022-09-12T18:30:22.168Z,22.60
2022-09-12T18:32:46.903Z,22.60
2022-09-12T18:35:10.515Z,22.64
2022-09-12T18:37:33.774Z,22.66
2022-09-12T18:39:57.946Z,22.74
2022-09-12T18:42:21.215Z,22.82
2022-09-12T18:44:44.487Z,22.80
2022-09-12T18:47:08.734Z,22.76
2022-09-12T18:49:33.443Z,22.66
2022-09-12T18:51:57.099Z,22.52
2022-09-12T18:54:20.667Z,22.43
2022-09-12T18:56:45.661Z,22.41
2022-09-12T18:59:08.930Z,22.34
2022-09-12T19:01:32.896Z,22.38
2022-09-12T19:03:56.394Z,22.49
2022-09-12T19:06:21.651Z,22.57
2022-09-12T19:08:45.032Z,22.59
2022-09-12T19:11:08.610Z,22.52
2022-09-12T19:13:31.914Z,22.65
2022-09-12T19:15:55.231Z,22.62
2022-09-12T19:18:18.572Z,22.61
2022-09-12T19:20:41.857Z,22.55
2022-09-12T19:23:06.536Z,22.51
2022-09-12T19:25:30.066Z,22.57
2022-09-12T19:27:53.292Z,22.60
2022-09-12T19:30:16.704Z,22.63
2022-09-12T19:32:40.055Z,22.60
2022-09-12T19:35:03.264Z,22.61
2022-09-12T19:37:26.562Z,22.59
2022-09-12T19:39:51.228Z,22.61
2022-09-12T19:42:14.524Z,22.60
2022-09-12T19:44:38.290Z,22.70
2022-09-12T19:47:01.644Z,22.66
2022-09-12T19:49:24.887Z,22.65
2022-09-12T19:51:48.166Z,22.49
2022-09-12T19:54:11.402Z,22.51
2022-09-12T19:56:36.008Z,22.45
2022-09-12T19:58:59.506Z,22.48
2022-09-12T20:01:24.909Z,22.56
2022-09-12T20:03:49.073Z,22.57
2022-09-12T20:06:13.164Z,22.57
2022-09-12T20:08:37.273Z,22.49
2022-09-12T20:11:00.482Z,22.51
2022-09-12T20:13:25.226Z,22.54
2022-09-12T20:15:48.458Z,22.55
2022-09-12T20:18:11.696Z,22.65
2022-09-12T20:20:34.900Z,22.63
2022-09-12T20:22:58.202Z,22.46
2022-09-12T20:25:21.409Z,22.32
2022-09-12T20:27:44.609Z,22.47
2022-09-12T20:30:10.862Z,22.45
2022-09-12T20:32:34.170Z,22.41
2022-09-12T20:34:57.386Z,22.40
2022-09-12T20:37:21.143Z,22.40
2022-09-12T20:39:47.829Z,22.43
2022-09-12T20:42:13.552Z,22.50
2022-09-12T20:44:36.778Z,22.37
2022-09-12T20:47:01.597Z,22.19
2022-09-12T20:49:24.848Z,22.23
2022-09-12T20:51:48.768Z,22.30
2022-09-12T20:54:11.961Z,22.33
2022-09-12T20:56:36.209Z,22.18
2022-09-12T20:58:59.690Z,22.15
2022-09-12T21:01:23.099Z,22.12
2022-09-12T21:03:47.870Z,22.13
2022-09-12T21:06:12.556Z,22.15
2022-09-12T21:08:35.643Z,22.18
2022-09-12T21:10:59.024Z,22.17
2022-09-12T21:13:22.210Z,22.12
2022-09-12T21:15:45.370Z,22.11
2022-09-12T21:18:08.661Z,22.10
2022-09-12T21:20:33.197Z,22.09
2022-09-12T21:22:56.476Z,22.12
2022-09-12T21:25:19.662Z,22.16
2022-09-12T21:27:42.842Z,22.14
2022-09-12T21:30:06.874Z,22.14
2022-09-12T21:32:34.631Z,22.17
2022-09-12T21:34:57.762Z,22.24
2022-09-12T21:37:22.322Z,22.16
2022-09-12T21:39:45.602Z,22.19
2022-09-12T21:42:08.917Z,22.10
2022-09-12T21:44:32.177Z,22.07
2022-09-12T21:46:55.326Z,22.09
2022-09-12T21:49:18.627Z,22.12
2022-09-12T21:51:41.898Z,22.11
2022-09-12T21:54:06.830Z,22.05
2022-09-12T21:56:30.115Z,21.90
2022-09-12T21:58:53.257Z,21.91
2022-09-12T22:01:16.457Z,22.00
2022-09-12T22:03:39.787Z,21.98
2022-09-12T22:06:04.021Z,21.98
2022-09-12T22:08:27.264Z,21.91
2022-09-12T22:10:51.800Z,21.89
2022-09-12T22:13:15.082Z,21.81
2022-09-12T22:15:41.096Z,21.86
2022-09-12T22:18:05.022Z,21.85
2022-09-12T22:20:28.171Z,21.93
2022-09-12T22:23:10.873Z,21.88
2022-09-12T22:25:34.059Z,21.91
2022-09-12T22:27:58.669Z,21.83
2022-09-12T22:30:22.221Z,21.88
2022-09-12T22:32:45.544Z,21.87
2022-09-12T22:35:09.264Z,21.87
2022-09-12T22:37:32.541Z,21.89
2022-09-12T22:39:55.951Z,21.94
2022-09-12T22:42:19.198Z,21.74
2022-09-12T22:44:43.719Z,21.72
2022-09-12T22:47:07.189Z,21.86
2022-09-12T22:49:31.005Z,21.89
2022-09-12T22:51:54.299Z,22.03
2022-09-12T22:54:17.461Z,21.98
2022-09-12T22:56:40.595Z,21.98
2022-09-12T22:59:03.789Z,21.84
2022-09-12T23:01:28.345Z,21.95
2022-09-12T23:03:51.449Z,21.89
2022-09-12T23:06:14.726Z,21.69
2022-09-12T23:08:38.086Z,21.68
2022-09-12T23:11:02.534Z,21.72
2022-09-12T23:13:25.457Z,21.55
2022-09-12T23:15:49.838Z,21.44
2022-09-12T23:18:14.270Z,21.41
2022-09-12T23:20:37.432Z,21.44
2022-09-12T23:23:00.595Z,21.52
2022-09-12T23:25:24.255Z,21.49
2022-09-12T23:27:48.461Z,21.46
2022-09-12T23:30:13.057Z,21.42
2022-09-12T23:32:36.602Z,21.40
2022-09-12T23:35:01.202Z,21.30
2022-09-12T23:37:24.153Z,21.44
2022-09-12T23:39:47.461Z,21.48
2022-09-12T23:42:10.602Z,21.41
2022-09-12T23:44:33.879Z,21.25
2022-09-12T23:46:57.002Z,21.36
2022-09-12T23:49:20.198Z,21.47
2022-09-12T23:51:44.860Z,21.37
2022-09-12T23:54:08.701Z,21.39
2022-09-12T23:56:31.881Z,21.30
2022-09-12T23:58:55.084Z,21.18
